sensor_id;sensor_type;location;lat;lon;timestamp;pressure;altitude;pressure_sealevel;temperature;humidity
51496;BME280;37572;52.094;4.870;2023-04-01T00:01:55;99043.47;;;18.90;52.04
51496;BME280;37572;52.094;4.870;2023-04-01T00:04:21;99045.34;;;18.89;52.31
51496;BME280;37572;52.094;4.870;2023-04-01T00:06:47;99041.03;;;18.88;52.43
51496;BME280;37572;52.094;4.870;2023-04-01T00:09:13;99043.97;;;18.86;52.21
51496;BME280;37572;52.094;4.870;2023-04-01T00:11:39;99045.59;;;18.88;52.06
51496;BME280;37572;52.094;4.870;2023-04-01T00:14:05;99055.00;;;18.85;52.38
51496;BME280;37572;52.094;4.870;2023-04-01T00:16:30;99047.16;;;18.83;52.18
51496;BME280;37572;52.094;4.870;2023-04-01T00:18:55;99054.44;;;18.83;51.90
51496;BME280;37572;52.094;4.870;2023-04-01T00:21:21;99057.16;;;18.83;52.47
51496;BME280;37572;52.094;4.870;2023-04-01T00:23:48;99056.56;;;18.81;52.31
51496;BME280;37572;52.094;4.870;2023-04-01T00:26:14;99056.81;;;18.79;52.38
51496;BME280;37572;52.094;4.870;2023-04-01T00:28:40;99065.94;;;18.78;52.52
51496;BME280;37572;52.094;4.870;2023-04-01T00:31:07;99063.78;;;18.75;52.39
51496;BME280;37572;52.094;4.870;2023-04-01T00:33:33;99062.94;;;18.75;52.39
51496;BME280;37572;52.094;4.870;2023-04-01T00:36:13;99069.19;;;18.75;52.11
51496;BME280;37572;52.094;4.870;2023-04-01T00:38:39;99065.66;;;18.75;52.23
51496;BME280;37572;52.094;4.870;2023-04-01T00:41:06;99073.19;;;18.73;52.06
51496;BME280;37572;52.094;4.870;2023-04-01T00:43:32;99071.28;;;18.73;52.29
51496;BME280;37572;52.094;4.870;2023-04-01T00:45:57;99070.72;;;18.71;52.17
51496;BME280;37572;52.094;4.870;2023-04-01T00:48:26;99078.81;;;18.71;52.58
51496;BME280;37572;52.094;4.870;2023-04-01T00:51:27;99076.38;;;18.70;52.32
51496;BME280;37572;52.094;4.870;2023-04-01T00:53:55;99079.06;;;18.70;52.46
51496;BME280;37572;52.094;4.870;2023-04-01T00:59:37;99080.41;;;18.67;51.97
51496;BME280;37572;52.094;4.870;2023-04-01T01:02:07;99081.47;;;18.66;52.22
51496;BME280;37572;52.094;4.870;2023-04-01T01:04:34;99073.38;;;18.66;52.42
51496;BME280;37572;52.094;4.870;2023-04-01T01:10:09;99079.25;;;18.63;52.41
51496;BME280;37572;52.094;4.870;2023-04-01T01:12:50;99085.75;;;18.62;52.10
51496;BME280;37572;52.094;4.870;2023-04-01T01:17:58;99088.09;;;18.58;52.13
51496;BME280;37572;52.094;4.870;2023-04-01T01:23:39;99097.50;;;18.56;52.20
51496;BME280;37572;52.094;4.870;2023-04-01T01:26:46;99093.72;;;18.57;52.32
51496;BME280;37572;52.094;4.870;2023-04-01T01:37:38;99100.94;;;18.51;52.34
51496;BME280;37572;52.094;4.870;2023-04-01T01:40:08;99107.38;;;18.50;52.43
51496;BME280;37572;52.094;4.870;2023-04-01T01:42:37;99100.94;;;18.51;52.48
51496;BME280;37572;52.094;4.870;2023-04-01T01:45:05;99107.38;;;18.50;52.35
51496;BME280;37572;52.094;4.870;2023-04-01T01:47:32;99103.88;;;18.49;52.12
51496;BME280;37572;52.094;4.870;2023-04-01T01:49:59;99112.22;;;18.48;52.30
51496;BME280;37572;52.094;4.870;2023-04-01T01:52:26;99113.88;;;18.49;52.30
51496;BME280;37572;52.094;4.870;2023-04-01T01:54:54;99107.91;;;18.47;52.50
51496;BME280;37572;52.094;4.870;2023-04-01T01:57:25;99119.50;;;18.47;52.13
51496;BME280;37572;52.094;4.870;2023-04-01T01:59:56;99113.56;;;18.45;52.37
51496;BME280;37572;52.094;4.870;2023-04-01T02:02:25;99121.03;;;18.43;52.49
51496;BME280;37572;52.094;4.870;2023-04-01T02:04:51;99121.03;;;18.43;52.48
51496;BME280;37572;52.094;4.870;2023-04-01T02:07:24;99118.34;;;18.43;52.36
51496;BME280;37572;52.094;4.870;2023-04-01T02:09:52;99122.13;;;18.42;52.31
51496;BME280;37572;52.094;4.870;2023-04-01T02:12:19;99128.81;;;18.40;52.22
51496;BME280;37572;52.094;4.870;2023-04-01T02:14:50;99135.03;;;18.40;52.36
51496;BME280;37572;52.094;4.870;2023-04-01T02:17:21;99133.41;;;18.39;52.32
51496;BME280;37572;52.094;4.870;2023-04-01T02:19:58;99137.16;;;18.38;52.08
51496;BME280;37572;52.094;4.870;2023-04-01T02:22:28;99146.31;;;18.37;52.45
51496;BME280;37572;52.094;4.870;2023-04-01T02:24:58;99146.31;;;18.37;52.54
51496;BME280;37572;52.094;4.870;2023-04-01T02:27:24;99140.59;;;18.34;52.45
51496;BME280;37572;52.094;4.870;2023-04-01T02:29:51;99138.72;;;18.34;52.55
51496;BME280;37572;52.094;4.870;2023-04-01T02:32:18;99148.69;;;18.34;52.48
51496;BME280;37572;52.094;4.870;2023-04-01T02:34:44;99147.84;;;18.33;52.43
51496;BME280;37572;52.094;4.870;2023-04-01T02:37:11;99155.38;;;18.31;52.41
51496;BME280;37572;52.094;4.870;2023-04-01T02:39:37;99157.03;;;18.32;52.63
51496;BME280;37572;52.094;4.870;2023-04-01T02:42:02;99150.22;;;18.29;52.69
51496;BME280;37572;52.094;4.870;2023-04-01T02:44:28;99154.81;;;18.29;52.29
51496;BME280;37572;52.094;4.870;2023-04-01T02:46:53;99152.13;;;18.29;52.34
51496;BME280;37572;52.094;4.870;2023-04-01T02:49:18;99158.56;;;18.28;52.28
51496;BME280;37572;52.094;4.870;2023-04-01T02:51:44;99157.75;;;18.27;52.33
51496;BME280;37572;52.094;4.870;2023-04-01T02:54:09;99162.56;;;18.25;52.39
51496;BME280;37572;52.094;4.870;2023-04-01T02:56:34;99169.81;;;18.25;52.66
51496;BME280;37572;52.094;4.870;2023-04-01T02:59:00;99170.06;;;18.23;52.40
51496;BME280;37572;52.094;4.870;2023-04-01T03:01:25;99176.28;;;18.24;52.58
51496;BME280;37572;52.094;4.870;2023-04-01T03:03:51;99178.38;;;18.22;52.76
51496;BME280;37572;52.094;4.870;2023-04-01T03:06:17;99180.75;;;18.18;52.44
51496;BME280;37572;52.094;4.870;2023-04-01T03:08:43;99182.66;;;18.18;52.63
51496;BME280;37572;52.094;4.870;2023-04-01T03:11:09;99179.41;;;18.16;52.70
51496;BME280;37572;52.094;4.870;2023-04-01T03:13:35;99190.16;;;18.16;52.53
51496;BME280;37572;52.094;4.870;2023-04-01T03:16:01;99202.81;;;18.15;52.70
51496;BME280;37572;52.094;4.870;2023-04-01T03:18:26;99208.47;;;18.14;52.53
51496;BME280;37572;52.094;4.870;2023-04-01T03:20:52;99208.47;;;18.14;52.86
51496;BME280;37572;52.094;4.870;2023-04-01T03:23:17;99206.81;;;18.12;52.72
51496;BME280;37572;52.094;4.870;2023-04-01T03:25:44;99215.94;;;18.11;52.71
51496;BME280;37572;52.094;4.870;2023-04-01T03:28:10;99224.50;;;18.08;52.51
51496;BME280;37572;52.094;4.870;2023-04-01T03:30:35;99222.66;;;18.09;52.52
51496;BME280;37572;52.094;4.870;2023-04-01T03:33:01;99229.09;;;18.08;52.83
51496;BME280;37572;52.094;4.870;2023-04-01T03:35:28;99227.72;;;18.05;52.89
51496;BME280;37572;52.094;4.870;2023-04-01T03:37:54;99240.09;;;18.06;53.02
51496;BME280;37572;52.094;4.870;2023-04-01T03:40:20;99240.09;;;18.06;52.54
51496;BME280;37572;52.094;4.870;2023-04-01T03:42:45;99239.28;;;18.06;52.79
51496;BME280;37572;52.094;4.870;2023-04-01T03:45:11;99246.56;;;18.05;52.83
51496;BME280;37572;52.094;4.870;2023-04-01T03:47:38;99244.91;;;18.04;52.87
51496;BME280;37572;52.094;4.870;2023-04-01T03:50:04;99249.50;;;18.04;52.73
51496;BME280;37572;52.094;4.870;2023-04-01T03:52:30;99251.34;;;18.03;52.43
51496;BME280;37572;52.094;4.870;2023-04-01T03:54:55;99265.91;;;18.02;52.84
51496;BME280;37572;52.094;4.870;2023-04-01T03:57:21;99265.91;;;18.02;52.75
51496;BME280;37572;52.094;4.870;2023-04-01T03:59:46;99269.41;;;18.03;52.77
51496;BME280;37572;52.094;4.870;2023-04-01T04:02:11;99265.91;;;18.02;52.84
51496;BME280;37572;52.094;4.870;2023-04-01T04:04:37;99282.88;;;18.03;52.67
51496;BME280;37572;52.094;4.870;2023-04-01T04:07:02;99276.09;;;18.00;52.48
51496;BME280;37572;52.094;4.870;2023-04-01T04:09:30;99289.31;;;18.02;52.69
51496;BME280;37572;52.094;4.870;2023-04-01T04:11:55;99292.00;;;18.02;52.69
51496;BME280;37572;52.094;4.870;2023-04-01T04:14:22;99298.69;;;17.99;52.63
51496;BME280;37572;52.094;4.870;2023-04-01T04:16:47;99295.69;;;17.96;52.92
51496;BME280;37572;52.094;4.870;2023-04-01T04:19:13;99304.56;;;17.96;52.66
51496;BME280;37572;52.094;4.870;2023-04-01T04:21:40;99309.16;;;17.96;52.98
51496;BME280;37572;52.094;4.870;2023-04-01T04:24:05;99313.69;;;17.95;53.05
51496;BME280;37572;52.094;4.870;2023-04-01T04:26:31;99316.38;;;17.95;52.73
51496;BME280;37572;52.094;4.870;2023-04-01T04:28:56;99320.97;;;17.94;52.61
51496;BME280;37572;52.094;4.870;2023-04-01T04:31:23;99327.16;;;17.95;52.60
51496;BME280;37572;52.094;4.870;2023-04-01T04:33:49;99317.47;;;17.94;52.52
51496;BME280;37572;52.094;4.870;2023-04-01T04:36:15;99328.22;;;17.94;53.10
51496;BME280;37572;52.094;4.870;2023-04-01T04:38:40;99330.91;;;17.94;52.47
51496;BME280;37572;52.094;4.870;2023-04-01T04:41:10;99338.44;;;17.92;52.49
51496;BME280;37572;52.094;4.870;2023-04-01T04:43:37;99341.94;;;17.92;52.94
51496;BME280;37572;52.094;4.870;2023-04-01T04:46:09;99350.25;;;17.91;52.85
51496;BME280;37572;52.094;4.870;2023-04-01T04:48:35;99351.78;;;17.87;52.83
51496;BME280;37572;52.094;4.870;2023-04-01T04:51:00;99355.88;;;17.89;52.58
51496;BME280;37572;52.094;4.870;2023-04-01T04:53:26;99352.38;;;17.89;52.57
51496;BME280;37572;52.094;4.870;2023-04-01T04:55:52;99359.38;;;17.90;52.77
51496;BME280;37572;52.094;4.870;2023-04-01T04:58:17;99365.84;;;17.89;52.68
51496;BME280;37572;52.094;4.870;2023-04-01T05:00:43;99376.00;;;17.87;52.66
51496;BME280;37572;52.094;4.870;2023-04-01T05:03:10;99372.47;;;17.86;52.84
51496;BME280;37572;52.094;4.870;2023-04-01T05:05:36;99381.63;;;17.85;52.57
51496;BME280;37572;52.094;4.870;2023-04-01T05:08:01;99382.44;;;17.86;52.46
51496;BME280;37572;52.094;4.870;2023-04-01T05:10:27;99385.94;;;17.86;52.50
51496;BME280;37572;52.094;4.870;2023-04-01T05:12:52;99385.34;;;17.84;52.79
51496;BME280;37572;52.094;4.870;2023-04-01T05:15:17;99398.38;;;17.87;52.78
51496;BME280;37572;52.094;4.870;2023-04-01T05:17:43;99401.41;;;17.91;52.50
51496;BME280;37572;52.094;4.870;2023-04-01T05:20:08;99413.84;;;17.92;52.57
51496;BME280;37572;52.094;4.870;2023-04-01T05:22:34;99403.63;;;17.94;52.55
51496;BME280;37572;52.094;4.870;2023-04-01T05:25:00;99414.97;;;17.96;52.37
51496;BME280;37572;52.094;4.870;2023-04-01T05:27:25;99431.72;;;17.98;52.66
51496;BME280;37572;52.094;4.870;2023-04-01T05:29:50;99435.00;;;18.00;52.43
51496;BME280;37572;52.094;4.870;2023-04-01T05:32:16;99431.81;;;18.03;52.23
51496;BME280;37572;52.094;4.870;2023-04-01T05:34:41;99434.88;;;18.07;52.22
51496;BME280;37572;52.094;4.870;2023-04-01T05:37:06;99440.81;;;18.09;52.24
51496;BME280;37572;52.094;4.870;2023-04-01T05:39:38;99447.34;;;18.13;51.88
51496;BME280;37572;52.094;4.870;2023-04-01T05:42:06;99448.53;;;18.17;52.28
51496;BME280;37572;52.094;4.870;2023-04-01T05:44:31;99440.78;;;18.21;51.90
51496;BME280;37572;52.094;4.870;2023-04-01T05:46:57;99448.41;;;18.24;51.97
51496;BME280;37572;52.094;4.870;2023-04-01T05:49:22;99448.50;;;18.29;51.77
51496;BME280;37572;52.094;4.870;2023-04-01T05:51:47;99460.16;;;18.35;51.76
51496;BME280;37572;52.094;4.870;2023-04-01T05:54:13;99460.28;;;18.40;51.91
51496;BME280;37572;52.094;4.870;2023-04-01T05:56:38;99463.06;;;18.45;51.58
51496;BME280;37572;52.094;4.870;2023-04-01T05:59:03;99458.50;;;18.45;51.27
51496;BME280;37572;52.094;4.870;2023-04-01T06:01:29;99464.72;;;18.46;51.61
51496;BME280;37572;52.094;4.870;2023-04-01T06:03:54;99464.47;;;18.47;51.51
51496;BME280;37572;52.094;4.870;2023-04-01T06:06:27;99467.41;;;18.46;51.38
51496;BME280;37572;52.094;4.870;2023-04-01T06:08:56;99477.13;;;18.47;51.56
51496;BME280;37572;52.094;4.870;2023-04-01T06:14:27;99480.88;;;18.46;51.49
51496;BME280;37572;52.094;4.870;2023-04-01T06:17:16;99488.16;;;18.45;51.51
51496;BME280;37572;52.094;4.870;2023-04-01T06:28:17;99504.91;;;18.47;51.41
51496;BME280;37572;52.094;4.870;2023-04-01T06:30:47;99521.88;;;18.48;51.79
51496;BME280;37572;52.094;4.870;2023-04-01T06:41:53;99529.72;;;18.49;51.95
51496;BME280;37572;52.094;4.870;2023-04-01T06:46:57;99539.94;;;18.47;52.33
51496;BME280;37572;52.094;4.870;2023-04-01T06:49:44;99545.31;;;18.47;52.11
51496;BME280;37572;52.094;4.870;2023-04-01T06:52:37;99556.56;;;18.44;51.98
51496;BME280;37572;52.094;4.870;2023-04-01T06:55:21;99557.06;;;18.41;52.12
51496;BME280;37572;52.094;4.870;2023-04-01T06:57:53;99560.22;;;18.38;51.96
51496;BME280;37572;52.094;4.870;2023-04-01T07:00:30;99563.38;;;18.35;52.32
51496;BME280;37572;52.094;4.870;2023-04-01T07:03:05;99570.88;;;18.33;52.31
51496;BME280;37572;52.094;4.870;2023-04-01T07:05:32;99576.03;;;18.35;52.28
51496;BME280;37572;52.094;4.870;2023-04-01T07:08:02;99581.44;;;18.35;52.21
51496;BME280;37572;52.094;4.870;2023-04-01T07:10:43;99582.00;;;18.37;52.27
51496;BME280;37572;52.094;4.870;2023-04-01T07:13:41;99588.25;;;18.37;52.01
51496;BME280;37572;52.094;4.870;2023-04-01T07:18:44;99597.47;;;18.41;52.25
51496;BME280;37572;52.094;4.870;2023-04-01T07:21:25;99602.16;;;18.46;52.31
51496;BME280;37572;52.094;4.870;2023-04-01T07:23:54;99602.97;;;18.46;51.88
51496;BME280;37572;52.094;4.870;2023-04-01T07:26:23;99608.97;;;18.48;52.00
51496;BME280;37572;52.094;4.870;2023-04-01T07:28:51;99613.28;;;18.49;52.29
51496;BME280;37572;52.094;4.870;2023-04-01T07:36:45;99619.84;;;18.54;51.58
51496;BME280;37572;52.094;4.870;2023-04-01T07:39:40;99627.56;;;18.50;51.60
51496;BME280;37572;52.094;4.870;2023-04-01T07:42:50;99630.53;;;18.48;52.08
51496;BME280;37572;52.094;4.870;2023-04-01T07:56:22;99648.78;;;18.58;51.66
51496;BME280;37572;52.094;4.870;2023-04-01T07:59:06;99645.84;;;18.60;51.91
51496;BME280;37572;52.094;4.870;2023-04-01T08:04:35;99662.72;;;18.67;51.57
51496;BME280;37572;52.094;4.870;2023-04-01T08:07:25;99658.94;;;18.68;51.32
51496;BME280;37572;52.094;4.870;2023-04-01T08:12:55;99672.19;;;18.70;51.30
51496;BME280;37572;52.094;4.870;2023-04-01T08:15:41;99676.78;;;18.69;51.63
51496;BME280;37572;52.094;4.870;2023-04-01T08:20:59;99676.78;;;18.69;51.01
51496;BME280;37572;52.094;4.870;2023-04-01T08:23:28;99689.47;;;18.68;50.50
51496;BME280;37572;52.094;4.870;2023-04-01T08:26:06;99683.69;;;18.65;50.68
51496;BME280;37572;52.094;4.870;2023-04-01T08:28:57;99692.00;;;18.63;50.96
51496;BME280;37572;52.094;4.870;2023-04-01T08:31:49;99697.41;;;18.63;51.25
51496;BME280;37572;52.094;4.870;2023-04-01T08:34:40;99705.75;;;18.62;50.86
51496;BME280;37572;52.094;4.870;2023-04-01T08:37:11;99704.09;;;18.61;50.41
51496;BME280;37572;52.094;4.870;2023-04-01T08:39:42;99707.84;;;18.60;50.56
51496;BME280;37572;52.094;4.870;2023-04-01T08:48:07;99719.09;;;18.57;51.05
51496;BME280;37572;52.094;4.870;2023-04-01T08:53:57;99736.00;;;18.64;50.77
51496;BME280;37572;52.094;4.870;2023-04-01T08:56:42;99726.69;;;18.72;50.33
51496;BME280;37572;52.094;4.870;2023-04-01T09:02:27;99739.00;;;18.79;50.62
51496;BME280;37572;52.094;4.870;2023-04-01T09:05:36;99741.47;;;18.81;50.72
51496;BME280;37572;52.094;4.870;2023-04-01T09:08:27;99742.53;;;18.80;50.68
51496;BME280;37572;52.094;4.870;2023-04-01T09:13:59;99748.53;;;18.82;50.64
51496;BME280;37572;52.094;4.870;2023-04-01T09:19:19;99756.84;;;18.80;50.72
51496;BME280;37572;52.094;4.870;2023-04-01T09:22:04;99753.53;;;18.78;50.62
51496;BME280;37572;52.094;4.870;2023-04-01T09:27:52;99767.16;;;18.83;50.67
51496;BME280;37572;52.094;4.870;2023-04-01T09:30:32;99770.00;;;18.89;50.35
51496;BME280;37572;52.094;4.870;2023-04-01T09:36:07;99763.75;;;19.00;50.37
51496;BME280;37572;52.094;4.870;2023-04-01T09:38:57;99777.97;;;19.07;50.47
51496;BME280;37572;52.094;4.870;2023-04-01T09:43:57;99778.16;;;19.17;50.56
51496;BME280;37572;52.094;4.870;2023-04-01T10:05:38;99803.03;;;19.19;50.93
51496;BME280;37572;52.094;4.870;2023-04-01T10:18:47;99820.25;;;19.18;51.04
51496;BME280;37572;52.094;4.870;2023-04-01T10:29:31;99827.53;;;19.30;50.51
51496;BME280;37572;52.094;4.870;2023-04-01T10:48:19;99837.38;;;19.36;50.48
51496;BME280;37572;52.094;4.870;2023-04-01T10:51:25;99836.34;;;19.37;50.47
51496;BME280;37572;52.094;4.870;2023-04-01T10:54:17;99840.66;;;19.38;50.49
51496;BME280;37572;52.094;4.870;2023-04-01T10:56:51;99843.94;;;19.40;50.71
51496;BME280;37572;52.094;4.870;2023-04-01T11:02:18;99840.28;;;19.46;50.63
51496;BME280;37572;52.094;4.870;2023-04-01T11:34:16;99886.50;;;19.62;51.10
51496;BME280;37572;52.094;4.870;2023-04-01T11:36:57;99880.97;;;19.68;50.53
51496;BME280;37572;52.094;4.870;2023-04-01T11:39:42;99880.38;;;19.78;50.17
51496;BME280;37572;52.094;4.870;2023-04-01T11:42:17;99883.78;;;19.85;50.34
51496;BME280;37572;52.094;4.870;2023-04-01T11:50:27;99899.63;;;19.93;49.87
51496;BME280;37572;52.094;4.870;2023-04-01T11:53:12;99904.03;;;20.00;49.91
51496;BME280;37572;52.094;4.870;2023-04-01T11:56:07;99901.34;;;20.00;49.86
51496;BME280;37572;52.094;4.870;2023-04-01T12:04:50;99920.63;;;19.91;50.45
51496;BME280;37572;52.094;4.870;2023-04-01T12:07:53;99918.41;;;19.88;50.18
51496;BME280;37572;52.094;4.870;2023-04-01T12:10:37;99928.28;;;19.83;50.60
51496;BME280;37572;52.094;4.870;2023-04-01T12:16:04;99937.56;;;19.75;50.80
51496;BME280;37572;52.094;4.870;2023-04-01T12:19:02;99931.56;;;19.73;50.91
51496;BME280;37572;52.094;4.870;2023-04-01T12:24:22;99938.66;;;19.62;50.88
51496;BME280;37572;52.094;4.870;2023-04-01T12:32:30;99962.00;;;19.56;51.05
51496;BME280;37572;52.094;4.870;2023-04-01T12:35:27;99966.69;;;19.61;50.96
51496;BME280;37572;52.094;4.870;2023-04-01T12:42:33;99968.56;;;19.72;50.92
51496;BME280;37572;52.094;4.870;2023-04-01T12:44:29;99970.59;;;19.77;50.59
51496;BME280;37572;52.094;4.870;2023-04-01T12:55:41;99983.47;;;19.51;51.35
51496;BME280;37572;52.094;4.870;2023-04-01T13:06:21;99997.44;;;19.60;51.11
51496;BME280;37572;52.094;4.870;2023-04-01T13:11:51;99995.81;;;19.71;51.48
51496;BME280;37572;52.094;4.870;2023-04-01T13:14:40;100002.97;;;20.01;50.93
51496;BME280;37572;52.094;4.870;2023-04-01T13:28:16;100033.41;;;19.60;51.56
51496;BME280;37572;52.094;4.870;2023-04-01T13:37:11;100048.63;;;19.43;52.29
51496;BME280;37572;52.094;4.870;2023-04-01T13:45:15;100047.47;;;19.63;52.40
51496;BME280;37572;52.094;4.870;2023-04-01T13:50:34;100054.03;;;19.67;52.38
51496;BME280;37572;52.094;4.870;2023-04-01T13:53:41;100057.69;;;19.60;52.52
51496;BME280;37572;52.094;4.870;2023-04-01T13:56:23;100057.13;;;19.58;52.06
51496;BME280;37572;52.094;4.870;2023-04-01T14:01:32;100058.75;;;19.59;52.49
51496;BME280;37572;52.094;4.870;2023-04-01T14:18:33;100089.38;;;19.53;52.53
51496;BME280;37572;52.094;4.870;2023-04-01T14:24:08;100095.50;;;19.60;52.07
51496;BME280;37572;52.094;4.870;2023-04-01T14:29:50;100110.28;;;19.58;52.35
51496;BME280;37572;52.094;4.870;2023-04-01T14:38:35;100122.28;;;19.62;52.35
51496;BME280;37572;52.094;4.870;2023-04-01T14:44:11;100137.88;;;19.60;51.92
51496;BME280;37572;52.094;4.870;2023-04-01T14:47:04;100139.88;;;19.65;51.89
51496;BME280;37572;52.094;4.870;2023-04-01T14:49:36;100149.75;;;19.71;51.80
51496;BME280;37572;52.094;4.870;2023-04-01T14:52:36;100158.91;;;19.70;51.74
51496;BME280;37572;52.094;4.870;2023-04-01T14:55:20;100157.84;;;19.71;52.07
51496;BME280;37572;52.094;4.870;2023-04-01T14:57:59;100158.44;;;19.73;51.42
51496;BME280;37572;52.094;4.870;2023-04-01T15:00:25;100166.47;;;19.80;51.59
51496;BME280;37572;52.094;4.870;2023-04-01T15:06:35;100171.41;;;19.83;51.43
51496;BME280;37572;52.094;4.870;2023-04-01T15:11:58;100183.16;;;19.88;51.04
51496;BME280;37572;52.094;4.870;2023-04-01T15:15:14;100192.91;;;19.89;51.01
51496;BME280;37572;52.094;4.870;2023-04-01T15:17:28;100201.03;;;19.89;50.77
51496;BME280;37572;52.094;4.870;2023-04-01T15:25:51;100211.13;;;19.94;50.38
51496;BME280;37572;52.094;4.870;2023-04-01T15:31:09;100214.41;;;19.96;50.01
51496;BME280;37572;52.094;4.870;2023-04-01T15:36:56;100231.09;;;19.93;50.07
51496;BME280;37572;52.094;4.870;2023-04-01T15:39:48;100234.03;;;19.91;49.86
51496;BME280;37572;52.094;4.870;2023-04-01T15:45:08;100246.13;;;19.89;49.57
51496;BME280;37572;52.094;4.870;2023-04-01T15:47:41;100244.25;;;19.89;49.60
51496;BME280;37572;52.094;4.870;2023-04-01T15:53:01;100258.78;;;19.88;49.16
51496;BME280;37572;52.094;4.870;2023-04-01T15:55:37;100257.75;;;19.89;49.49
51496;BME280;37572;52.094;4.870;2023-04-01T16:01:23;100285.00;;;19.88;49.52
51496;BME280;37572;52.094;4.870;2023-04-01T16:06:57;100285.69;;;19.83;49.57
51496;BME280;37572;52.094;4.870;2023-04-01T16:09:39;100285.09;;;19.81;49.66
51496;BME280;37572;52.094;4.870;2023-04-01T16:14:42;100289.91;;;19.79;49.82
51496;BME280;37572;52.094;4.870;2023-04-01T16:23:00;100312.78;;;19.76;49.78
51496;BME280;37572;52.094;4.870;2023-04-01T16:25:43;100314.69;;;19.76;49.94
51496;BME280;37572;52.094;4.870;2023-04-01T16:28:34;100317.16;;;19.77;49.79
51496;BME280;37572;52.094;4.870;2023-04-01T16:31:09;100324.66;;;19.75;49.58
51496;BME280;37572;52.094;4.870;2023-04-01T16:33:49;100330.44;;;19.79;49.47
51496;BME280;37572;52.094;4.870;2023-04-01T16:41:31;100340.41;;;19.78;49.35
51496;BME280;37572;52.094;4.870;2023-04-01T16:44:17;100348.75;;;19.77;49.72
51496;BME280;37572;52.094;4.870;2023-04-01T16:46:48;100351.44;;;19.77;49.50
51496;BME280;37572;52.094;4.870;2023-04-01T16:51:46;100362.09;;;19.72;49.73
51496;BME280;37572;52.094;4.870;2023-04-01T16:57:03;100380.91;;;19.60;49.58
51496;BME280;37572;52.094;4.870;2023-04-01T17:02:33;100393.06;;;19.69;49.69
51496;BME280;37572;52.094;4.870;2023-04-01T17:05:12;100393.44;;;19.73;49.39
51496;BME280;37572;52.094;4.870;2023-04-01T17:07:46;100407.34;;;19.76;49.70
51496;BME280;37572;52.094;4.870;2023-04-01T17:16:03;100421.06;;;19.75;49.36
51496;BME280;37572;52.094;4.870;2023-04-01T17:19:30;100420.03;;;19.76;49.10
51496;BME280;37572;52.094;4.870;2023-04-01T17:21:49;100432.91;;;19.74;49.01
51496;BME280;37572;52.094;4.870;2023-04-01T17:27:17;100443.13;;;19.72;48.89
51496;BME280;37572;52.094;4.870;2023-04-01T17:35:12;100468.69;;;19.69;48.76
51496;BME280;37572;52.094;4.870;2023-04-01T17:45:28;100485.75;;;19.88;48.63
51496;BME280;37572;52.094;4.870;2023-04-01T17:48:09;100490.09;;;19.89;48.40
51496;BME280;37572;52.094;4.870;2023-04-01T17:51:02;100498.66;;;19.86;48.47
51496;BME280;37572;52.094;4.870;2023-04-01T18:04:43;100536.41;;;19.93;48.07
51496;BME280;37572;52.094;4.870;2023-04-01T18:07:38;100537.84;;;19.95;48.23
51496;BME280;37572;52.094;4.870;2023-04-01T18:10:31;100551.50;;;20.01;48.15
51496;BME280;37572;52.094;4.870;2023-04-01T18:16:06;100566.22;;;20.05;48.10
51496;BME280;37572;52.094;4.870;2023-04-01T18:18:50;100571.63;;;20.05;47.79
51496;BME280;37572;52.094;4.870;2023-04-01T18:21:45;100578.09;;;20.04;47.75
51496;BME280;37572;52.094;4.870;2023-04-01T18:24:30;100584.75;;;20.01;47.56
51496;BME280;37572;52.094;4.870;2023-04-01T18:27:28;100592.88;;;20.01;47.96
51496;BME280;37572;52.094;4.870;2023-04-01T18:30:02;100604.34;;;19.96;47.25
51496;BME280;37572;52.094;4.870;2023-04-01T18:32:35;100610.81;;;19.95;47.75
51496;BME280;37572;52.094;4.870;2023-04-01T18:35:27;100611.63;;;19.96;47.49
51496;BME280;37572;52.094;4.870;2023-04-01T18:40:30;100632.66;;;19.94;47.33
51496;BME280;37572;52.094;4.870;2023-04-01T18:46:00;100643.44;;;19.94;47.51
51496;BME280;37572;52.094;4.870;2023-04-01T18:56:30;100669.88;;;19.92;47.25
51496;BME280;37572;52.094;4.870;2023-04-01T19:02:17;100683.81;;;19.89;47.24
51496;BME280;37572;52.094;4.870;2023-04-01T19:04:52;100688.63;;;19.87;47.42
51496;BME280;37572;52.094;4.870;2023-04-01T19:07:48;100691.56;;;19.85;47.20
51496;BME280;37572;52.094;4.870;2023-04-01T19:13:15;100714.41;;;19.83;47.14
51496;BME280;37572;52.094;4.870;2023-04-01T19:21:47;100722.75;;;19.81;47.16
51496;BME280;37572;52.094;4.870;2023-04-01T19:30:00;100747.06;;;19.81;47.17
51496;BME280;37572;52.094;4.870;2023-04-01T19:35:26;100754.56;;;19.79;47.34
51496;BME280;37572;52.094;4.870;2023-04-01T19:38:02;100766.63;;;19.76;47.13
51496;BME280;37572;52.094;4.870;2023-04-01T19:45:43;100767.25;;;19.72;47.15
51496;BME280;37572;52.094;4.870;2023-04-01T19:51:05;100785.09;;;19.73;47.26
51496;BME280;37572;52.094;4.870;2023-04-01T19:56:21;100794.88;;;19.74;46.97
51496;BME280;37572;52.094;4.870;2023-04-01T19:59:03;100805.06;;;19.72;47.08
51496;BME280;37572;52.094;4.870;2023-04-01T20:01:38;100802.59;;;19.70;47.15
51496;BME280;37572;52.094;4.870;2023-04-01T20:07:16;100822.75;;;19.68;46.85
51496;BME280;37572;52.094;4.870;2023-04-01T20:15:02;100841.47;;;19.63;46.77
51496;BME280;37572;52.094;4.870;2023-04-01T20:17:43;100843.34;;;19.62;46.96
51496;BME280;37572;52.094;4.870;2023-04-01T20:28:04;100858.72;;;19.62;46.89
51496;BME280;37572;52.094;4.870;2023-04-01T20:36:26;100881.38;;;19.60;46.91
51496;BME280;37572;52.094;4.870;2023-04-01T20:49:10;100918.59;;;19.52;46.83
51496;BME280;37572;52.094;4.870;2023-04-01T20:51:06;100915.06;;;19.51;46.42
51496;BME280;37572;52.094;4.870;2023-04-01T20:53:42;100916.13;;;19.50;46.46
51496;BME280;37572;52.094;4.870;2023-04-01T20:58:57;100930.41;;;19.57;46.51
51496;BME280;37572;52.094;4.870;2023-04-01T21:07:28;100948.50;;;19.57;46.24
51496;BME280;37572;52.094;4.870;2023-04-01T21:10:14;100948.94;;;19.54;46.44
51496;BME280;37572;52.094;4.870;2023-04-01T21:23:45;100985.50;;;19.43;45.97